PWSweather.com
Personal Weather Stations
Station Observations
IFREISTO2
Freiston, FreistonGB PE22 0QJ

FreistonFreistonGB PE22 0QJ

Lat: 52.964, Lon: 0.041

Elevation: 16

Station Type: Fine Offset

http://www.midlifedad.me.uk/weather

High Low Average
Temperature 64.9°F18.3°C 38.1°F3.4°C 48.2°F9.0°C
Dew Point 41.7°F5.4°C 31.4°F-0.3°C 36.8°F2.7°C
Winds 13.2 mph 21.2 kmh 1.7 mph 2.7 kmh 9.0 mph WSW14.5 kmh WSW
Wind Gusts 19.7 mph31.7 kmh 4.5 mph7.2 kmh 14.0 mph22.5 kmh
Humidity 87% 42% 67%
Pressure 30.32 in1026.8 mb 29.84 in1010.5 mb -
Precipitation 0.00 in0.0 mm - -
Hour Temp Dew Point Humidity Winds Wind Gusts Pressure Precip Precip Rate Daily Precip Total
12:00 AM 41.4°F5.2°C 32.3°F0.2°C 70% 9.4 mph N15.1 kmh N 16.8 mph27.0 kmh 30.32 in1026.8 mb 0.00 in0.0 mm 0.00 in0.0 mm 0.00 in0.0 mm
12:05 AM 41.0°F5.0°C 32.0°F0.0°C 70% 9.0 mph N14.5 kmh N 13.6 mph21.9 kmh 30.32 in1026.8 mb 0.00 in0.0 mm 0.00 in0.0 mm 0.00 in0.0 mm
12:10 AM 40.6°F4.8°C 32.0°F0.0°C 71% 8.6 mph N13.8 kmh N 13.6 mph21.9 kmh 30.32 in1026.8 mb 0.00 in0.0 mm 0.00 in0.0 mm 0.00 in0.0 mm
12:15 AM 40.5°F4.7°C 32.1°F0.1°C 72% 8.6 mph N13.8 kmh N 13.6 mph21.9 kmh 30.32 in1026.8 mb 0.00 in0.0 mm 0.00 in0.0 mm 0.00 in0.0 mm
12:20 AM 40.3°F4.6°C 32.0°F0.0°C 72% 9.2 mph N14.8 kmh N 13.6 mph21.9 kmh 30.32 in1026.8 mb 0.00 in0.0 mm 0.00 in0.0 mm 0.00 in0.0 mm
12:25 AM 40.1°F4.5°C 31.8°F-0.1°C 72% 9.3 mph N15.0 kmh N 14.5 mph23.3 kmh 30.32 in1026.8 mb 0.00 in0.0 mm 0.00 in0.0 mm 0.00 in0.0 mm
12:30 AM 39.9°F4.4°C 31.6°F-0.2°C 72% 8.6 mph N13.8 kmh N 14.5 mph23.3 kmh 30.32 in1026.8 mb 0.00 in0.0 mm 0.00 in0.0 mm 0.00 in0.0 mm
12:35 AM 39.7°F4.3°C 31.4°F-0.3°C 72% 9.0 mph N14.5 kmh N 14.5 mph23.3 kmh 30.32 in1026.8 mb 0.00 in0.0 mm 0.00 in0.0 mm 0.00 in0.0 mm
12:40 AM 39.7°F4.3°C 31.4°F-0.3°C 72% 10.3 mph N16.6 kmh N 15.2 mph24.5 kmh 30.32 in1026.8 mb 0.00 in0.0 mm 0.00 in0.0 mm 0.00 in0.0 mm
12:45 AM 39.7°F4.3°C 31.8°F-0.1°C 73% 10.4 mph N16.7 kmh N 15.9 mph25.6 kmh 30.32 in1026.8 mb 0.00 in0.0 mm 0.00 in0.0 mm 0.00 in0.0 mm
12:50 AM 39.7°F4.3°C 31.8°F-0.1°C 73% 9.8 mph N15.8 kmh N 15.9 mph25.6 kmh 30.32 in1026.8 mb 0.00 in0.0 mm 0.00 in0.0 mm 0.00 in0.0 mm
12:55 AM 39.6°F4.2°C 31.6°F-0.2°C 73% 10.0 mph NNW16.1 kmh NNW 14.5 mph23.3 kmh 30.32 in1026.8 mb 0.00 in0.0 mm 0.00 in0.0 mm 0.00 in0.0 mm
01:00 AM 39.6°F4.2°C 31.6°F-0.2°C 73% 9.9 mph NNW15.9 kmh NNW 14.5 mph23.3 kmh 30.32 in1026.8 mb 0.00 in0.0 mm 0.00 in0.0 mm 0.00 in0.0 mm
01:05 AM 39.4°F4.1°C 31.4°F-0.3°C 73% 9.0 mph N14.5 kmh N 14.5 mph23.3 kmh 30.31 in1026.4 mb 0.00 in0.0 mm 0.00 in0.0 mm 0.00 in0.0 mm
01:10 AM 39.4°F4.1°C 31.8°F-0.1°C 74% 8.7 mph N14.0 kmh N 14.5 mph23.3 kmh 30.31 in1026.4 mb 0.00 in0.0 mm 0.00 in0.0 mm 0.00 in0.0 mm
01:15 AM 39.2°F4.0°C 31.6°F-0.2°C 74% 8.3 mph N13.4 kmh N 14.5 mph23.3 kmh 30.31 in1026.4 mb 0.00 in0.0 mm 0.00 in0.0 mm 0.00 in0.0 mm
01:20 AM 39.0°F3.9°C 31.8°F-0.1°C 75% 7.6 mph N12.2 kmh N 14.5 mph23.3 kmh 30.31 in1026.4 mb 0.00 in0.0 mm 0.00 in0.0 mm 0.00 in0.0 mm
01:25 AM 39.0°F3.9°C 31.8°F-0.1°C 75% 8.5 mph N13.7 kmh N 15.2 mph24.5 kmh 30.31 in1026.4 mb 0.00 in0.0 mm 0.00 in0.0 mm 0.00 in0.0 mm
01:30 AM 39.0°F3.9°C 31.8°F-0.1°C 75% 9.7 mph NW15.6 kmh NW 15.2 mph24.5 kmh 30.31 in1026.4 mb 0.00 in0.0 mm 0.00 in0.0 mm 0.00 in0.0 mm
01:35 AM 39.0°F3.9°C 31.8°F-0.1°C 75% 9.7 mph WSW15.6 kmh WSW 15.2 mph24.5 kmh 30.31 in1026.4 mb 0.00 in0.0 mm 0.00 in0.0 mm 0.00 in0.0 mm
01:40 AM 38.8°F3.8°C 31.6°F-0.2°C 75% 9.2 mph WSW14.8 kmh WSW 13.6 mph21.9 kmh 30.30 in1026.1 mb 0.00 in0.0 mm 0.00 in0.0 mm 0.00 in0.0 mm
01:45 AM 38.8°F3.8°C 31.6°F-0.2°C 75% 9.2 mph WSW14.8 kmh WSW 15.9 mph25.6 kmh 30.31 in1026.4 mb 0.00 in0.0 mm 0.00 in0.0 mm 0.00 in0.0 mm
01:50 AM 38.8°F3.8°C 31.9°F-0.1°C 76% 10.1 mph WSW16.3 kmh WSW 15.9 mph25.6 kmh 30.31 in1026.4 mb 0.00 in0.0 mm 0.00 in0.0 mm 0.00 in0.0 mm
01:55 AM 39.0°F3.9°C 32.1°F0.1°C 76% 10.2 mph NW16.4 kmh NW 15.9 mph25.6 kmh 30.30 in1026.1 mb 0.00 in0.0 mm 0.00 in0.0 mm 0.00 in0.0 mm
02:00 AM 38.8°F3.8°C 31.9°F-0.1°C 76% 9.3 mph NNW15.0 kmh NNW 15.9 mph25.6 kmh 30.30 in1026.1 mb 0.00 in0.0 mm 0.00 in0.0 mm 0.00 in0.0 mm
02:05 AM 38.8°F3.8°C 31.9°F-0.1°C 76% 9.0 mph W14.5 kmh W 14.5 mph23.3 kmh 30.30 in1026.1 mb 0.00 in0.0 mm 0.00 in0.0 mm 0.00 in0.0 mm
02:10 AM 38.8°F3.8°C 31.9°F-0.1°C 76% 10.2 mph W16.4 kmh W 15.9 mph25.6 kmh 30.30 in1026.1 mb 0.00 in0.0 mm 0.00 in0.0 mm 0.00 in0.0 mm
02:15 AM 38.8°F3.8°C 31.9°F-0.1°C 76% 10.5 mph NW16.9 kmh NW 15.9 mph25.6 kmh 30.30 in1026.1 mb 0.00 in0.0 mm 0.00 in0.0 mm 0.00 in0.0 mm
02:20 AM 38.8°F3.8°C 31.9°F-0.1°C 76% 9.5 mph N15.3 kmh N 14.5 mph23.3 kmh 30.30 in1026.1 mb 0.00 in0.0 mm 0.00 in0.0 mm 0.00 in0.0 mm
02:25 AM 38.7°F3.7°C 31.7°F-0.2°C 76% 9.2 mph N14.8 kmh N 13.6 mph21.9 kmh 30.30 in1026.1 mb 0.00 in0.0 mm 0.00 in0.0 mm 0.00 in0.0 mm
02:30 AM 38.8°F3.8°C 31.9°F-0.1°C 76% 9.1 mph N14.6 kmh N 15.2 mph24.5 kmh 30.30 in1026.1 mb 0.00 in0.0 mm 0.00 in0.0 mm 0.00 in0.0 mm
02:35 AM 38.8°F3.8°C 31.9°F-0.1°C 76% 8.9 mph N14.3 kmh N 15.2 mph24.5 kmh 30.30 in1026.1 mb 0.00 in0.0 mm 0.00 in0.0 mm 0.00 in0.0 mm
02:40 AM 38.7°F3.7°C 31.7°F-0.2°C 76% 8.8 mph N14.2 kmh N 14.5 mph23.3 kmh 30.29 in1025.7 mb 0.00 in0.0 mm 0.00 in0.0 mm 0.00 in0.0 mm
02:45 AM 38.7°F3.7°C 31.7°F-0.2°C 76% 8.5 mph N13.7 kmh N 13.0 mph20.9 kmh 30.30 in1026.1 mb 0.00 in0.0 mm 0.00 in0.0 mm 0.00 in0.0 mm
02:50 AM 38.7°F3.7°C 31.7°F-0.2°C 76% 8.8 mph N14.2 kmh N 13.6 mph21.9 kmh 30.29 in1025.7 mb 0.00 in0.0 mm 0.00 in0.0 mm 0.00 in0.0 mm
02:55 AM 38.7°F3.7°C 31.7°F-0.2°C 76% 9.3 mph N15.0 kmh N 13.6 mph21.9 kmh 30.29 in1025.7 mb 0.00 in0.0 mm 0.00 in0.0 mm 0.00 in0.0 mm
03:00 AM 38.8°F3.8°C 31.9°F-0.1°C 76% 9.0 mph N14.5 kmh N 13.0 mph20.9 kmh 30.29 in1025.7 mb 0.00 in0.0 mm 0.00 in0.0 mm 0.00 in0.0 mm
03:05 AM 39.0°F3.9°C 32.1°F0.1°C 76% 8.5 mph N13.7 kmh N 13.6 mph21.9 kmh 30.29 in1025.7 mb 0.00 in0.0 mm 0.00 in0.0 mm 0.00 in0.0 mm
03:10 AM 39.2°F4.0°C 32.3°F0.2°C 76% 9.2 mph N14.8 kmh N 15.9 mph25.6 kmh 30.29 in1025.7 mb 0.00 in0.0 mm 0.00 in0.0 mm 0.00 in0.0 mm
03:15 AM 39.6°F4.2°C 32.6°F0.3°C 76% 10.3 mph N16.6 kmh N 15.9 mph25.6 kmh 30.29 in1025.7 mb 0.00 in0.0 mm 0.00 in0.0 mm 0.00 in0.0 mm
03:20 AM 39.7°F4.3°C 32.5°F0.3°C 75% 10.7 mph N17.2 kmh N 15.9 mph25.6 kmh 30.29 in1025.7 mb 0.00 in0.0 mm 0.00 in0.0 mm 0.00 in0.0 mm
03:25 AM 39.7°F4.3°C 32.5°F0.3°C 75% 10.6 mph N17.1 kmh N 15.9 mph25.6 kmh 30.28 in1025.4 mb 0.00 in0.0 mm 0.00 in0.0 mm 0.00 in0.0 mm
03:30 AM 39.7°F4.3°C 32.5°F0.3°C 75% 10.5 mph N16.9 kmh N 15.2 mph24.5 kmh 30.28 in1025.4 mb 0.00 in0.0 mm 0.00 in0.0 mm 0.00 in0.0 mm
03:35 AM 39.6°F4.2°C 32.3°F0.2°C 75% 9.4 mph N15.1 kmh N 15.2 mph24.5 kmh 30.28 in1025.4 mb 0.00 in0.0 mm 0.00 in0.0 mm 0.00 in0.0 mm
03:40 AM 39.4°F4.1°C 32.1°F0.1°C 75% 8.6 mph N13.8 kmh N 13.0 mph20.9 kmh 30.28 in1025.4 mb 0.00 in0.0 mm 0.00 in0.0 mm 0.00 in0.0 mm
03:45 AM 39.4°F4.1°C 32.1°F0.1°C 75% 9.3 mph N15.0 kmh N 13.6 mph21.9 kmh 30.27 in1025.1 mb 0.00 in0.0 mm 0.00 in0.0 mm 0.00 in0.0 mm
03:50 AM 39.2°F4.0°C 31.9°F-0.1°C 75% 9.6 mph N15.4 kmh N 13.6 mph21.9 kmh 30.27 in1025.1 mb 0.00 in0.0 mm 0.00 in0.0 mm 0.00 in0.0 mm
03:55 AM 39.2°F4.0°C 31.9°F-0.1°C 75% 9.8 mph N15.8 kmh N 13.6 mph21.9 kmh 30.27 in1025.1 mb 0.00 in0.0 mm 0.00 in0.0 mm 0.00 in0.0 mm
04:00 AM 39.2°F4.0°C 31.9°F-0.1°C 75% 9.6 mph N15.4 kmh N 15.2 mph24.5 kmh 30.27 in1025.1 mb 0.00 in0.0 mm 0.00 in0.0 mm 0.00 in0.0 mm
04:05 AM 39.2°F4.0°C 31.9°F-0.1°C 75% 8.9 mph NNW14.3 kmh NNW 15.2 mph24.5 kmh 30.27 in1025.1 mb 0.00 in0.0 mm 0.00 in0.0 mm 0.00 in0.0 mm
04:10 AM 39.2°F4.0°C 31.9°F-0.1°C 75% 9.2 mph NNW14.8 kmh NNW 15.2 mph24.5 kmh 30.27 in1025.1 mb 0.00 in0.0 mm 0.00 in0.0 mm 0.00 in0.0 mm
04:15 AM 39.2°F4.0°C 32.3°F0.2°C 76% 9.5 mph N15.3 kmh N 15.2 mph24.5 kmh 30.27 in1025.1 mb 0.00 in0.0 mm 0.00 in0.0 mm 0.00 in0.0 mm
04:20 AM 39.2°F4.0°C 32.3°F0.2°C 76% 8.6 mph N13.8 kmh N 13.0 mph20.9 kmh 30.27 in1025.1 mb 0.00 in0.0 mm 0.00 in0.0 mm 0.00 in0.0 mm
04:25 AM 39.0°F3.9°C 32.4°F0.2°C 77% 7.9 mph N12.7 kmh N 13.0 mph20.9 kmh 30.27 in1025.1 mb 0.00 in0.0 mm 0.00 in0.0 mm 0.00 in0.0 mm
04:30 AM 39.0°F3.9°C 32.4°F0.2°C 77% 8.3 mph N13.4 kmh N 13.6 mph21.9 kmh 30.27 in1025.1 mb 0.00 in0.0 mm 0.00 in0.0 mm 0.00 in0.0 mm
04:35 AM 39.0°F3.9°C 32.7°F0.4°C 78% 8.6 mph N13.8 kmh N 13.6 mph21.9 kmh 30.27 in1025.1 mb 0.00 in0.0 mm 0.00 in0.0 mm 0.00 in0.0 mm
04:40 AM 39.0°F3.9°C 32.7°F0.4°C 78% 8.0 mph N12.9 kmh N 13.0 mph20.9 kmh 30.27 in1025.1 mb 0.00 in0.0 mm 0.00 in0.0 mm 0.00 in0.0 mm
04:45 AM 39.0°F3.9°C 32.7°F0.4°C 78% 8.0 mph N12.9 kmh N 12.1 mph19.5 kmh 30.26 in1024.7 mb 0.00 in0.0 mm 0.00 in0.0 mm 0.00 in0.0 mm
04:50 AM 38.8°F3.8°C 32.6°F0.3°C 78% 8.0 mph N12.9 kmh N 12.1 mph19.5 kmh 30.26 in1024.7 mb 0.00 in0.0 mm 0.00 in0.0 mm 0.00 in0.0 mm
04:55 AM 38.8°F3.8°C 32.9°F0.5°C 79% 7.5 mph N12.1 kmh N 12.1 mph19.5 kmh 30.26 in1024.7 mb 0.00 in0.0 mm 0.00 in0.0 mm 0.00 in0.0 mm
05:00 AM 38.8°F3.8°C 32.9°F0.5°C 79% 8.4 mph N13.5 kmh N 13.0 mph20.9 kmh 30.26 in1024.7 mb 0.00 in0.0 mm 0.00 in0.0 mm 0.00 in0.0 mm
05:05 AM 38.8°F3.8°C 32.9°F0.5°C 79% 8.8 mph N14.2 kmh N 13.0 mph20.9 kmh 30.26 in1024.7 mb 0.00 in0.0 mm 0.00 in0.0 mm 0.00 in0.0 mm
05:10 AM 38.8°F3.8°C 32.9°F0.5°C 79% 8.0 mph N12.9 kmh N 13.0 mph20.9 kmh 30.26 in1024.7 mb 0.00 in0.0 mm 0.00 in0.0 mm 0.00 in0.0 mm
05:15 AM 38.7°F3.7°C 32.7°F0.4°C 79% 7.4 mph NNE11.9 kmh NNE 13.0 mph20.9 kmh 30.26 in1024.7 mb 0.00 in0.0 mm 0.00 in0.0 mm 0.00 in0.0 mm
05:20 AM 38.7°F3.7°C 33.0°F0.6°C 80% 6.8 mph NNE10.9 kmh NNE 10.7 mph17.2 kmh 30.26 in1024.7 mb 0.00 in0.0 mm 0.00 in0.0 mm 0.00 in0.0 mm
05:25 AM 38.5°F3.6°C 32.8°F0.4°C 80% 6.6 mph NNE10.6 kmh NNE 10.7 mph17.2 kmh 30.26 in1024.7 mb 0.00 in0.0 mm 0.00 in0.0 mm 0.00 in0.0 mm
05:30 AM 38.5°F3.6°C 32.8°F0.4°C 80% 6.5 mph NNE10.5 kmh NNE 10.7 mph17.2 kmh 30.26 in1024.7 mb 0.00 in0.0 mm 0.00 in0.0 mm 0.00 in0.0 mm
05:35 AM 38.5°F3.6°C 32.8°F0.4°C 80% 5.8 mph NNE9.3 kmh NNE 10.7 mph17.2 kmh 30.26 in1024.7 mb 0.00 in0.0 mm 0.00 in0.0 mm 0.00 in0.0 mm
05:40 AM 38.5°F3.6°C 33.2°F0.7°C 81% 5.7 mph NNE9.2 kmh NNE 10.7 mph17.2 kmh 30.26 in1024.7 mb 0.00 in0.0 mm 0.00 in0.0 mm 0.00 in0.0 mm
05:45 AM 38.5°F3.6°C 33.2°F0.7°C 81% 6.3 mph NNE10.1 kmh NNE 9.8 mph15.8 kmh 30.26 in1024.7 mb 0.00 in0.0 mm 0.00 in0.0 mm 0.00 in0.0 mm
05:50 AM 38.5°F3.6°C 33.2°F0.7°C 81% 6.5 mph NNE10.5 kmh NNE 9.8 mph15.8 kmh 30.26 in1024.7 mb 0.00 in0.0 mm 0.00 in0.0 mm 0.00 in0.0 mm
05:55 AM 38.5°F3.6°C 33.2°F0.7°C 81% 6.5 mph NNE10.5 kmh NNE 9.8 mph15.8 kmh 30.26 in1024.7 mb 0.00 in0.0 mm 0.00 in0.0 mm 0.00 in0.0 mm
06:00 AM 38.5°F3.6°C 33.2°F0.7°C 81% 7.0 mph NNE11.3 kmh NNE 10.7 mph17.2 kmh 30.26 in1024.7 mb 0.00 in0.0 mm 0.00 in0.0 mm 0.00 in0.0 mm
06:05 AM 38.5°F3.6°C 33.2°F0.7°C 81% 6.8 mph NNE10.9 kmh NNE 11.4 mph18.3 kmh 30.26 in1024.7 mb 0.00 in0.0 mm 0.00 in0.0 mm 0.00 in0.0 mm
06:10 AM 38.7°F3.7°C 33.6°F0.9°C 82% 6.7 mph NNE10.8 kmh NNE 11.4 mph18.3 kmh 30.26 in1024.7 mb 0.00 in0.0 mm 0.00 in0.0 mm 0.00 in0.0 mm
06:15 AM 38.7°F3.7°C 33.6°F0.9°C 82% 7.2 mph NNE11.6 kmh NNE 11.4 mph18.3 kmh 30.25 in1024.4 mb 0.00 in0.0 mm 0.00 in0.0 mm 0.00 in0.0 mm
06:20 AM 38.8°F3.8°C 33.8°F1.0°C 82% 6.9 mph NNE11.1 kmh NNE 11.4 mph18.3 kmh 30.25 in1024.4 mb 0.00 in0.0 mm 0.00 in0.0 mm 0.00 in0.0 mm
06:25 AM 38.8°F3.8°C 33.8°F1.0°C 82% 7.1 mph NNE11.4 kmh NNE 12.1 mph19.5 kmh 30.26 in1024.7 mb 0.00 in0.0 mm 0.00 in0.0 mm 0.00 in0.0 mm
06:30 AM 39.0°F3.9°C 34.0°F1.1°C 82% 8.1 mph NNE13.0 kmh NNE 12.1 mph19.5 kmh 30.25 in1024.4 mb 0.00 in0.0 mm 0.00 in0.0 mm 0.00 in0.0 mm
06:35 AM 39.4°F4.1°C 34.0°F1.1°C 81% 8.1 mph NNE13.0 kmh NNE 13.0 mph20.9 kmh 30.25 in1024.4 mb 0.00 in0.0 mm 0.00 in0.0 mm 0.00 in0.0 mm
06:40 AM 39.7°F4.3°C 34.7°F1.5°C 82% 8.7 mph NNE14.0 kmh NNE 15.2 mph24.5 kmh 30.25 in1024.4 mb 0.00 in0.0 mm 0.00 in0.0 mm 0.00 in0.0 mm
06:45 AM 40.5°F4.7°C 35.4°F1.9°C 82% 8.5 mph NNE13.7 kmh NNE 15.2 mph24.5 kmh 30.26 in1024.7 mb 0.00 in0.0 mm 0.00 in0.0 mm 0.00 in0.0 mm
06:50 AM 41.4°F5.2°C 36.3°F2.4°C 82% 7.5 mph NNE12.1 kmh NNE 13.6 mph21.9 kmh 30.25 in1024.4 mb 0.00 in0.0 mm 0.00 in0.0 mm 0.00 in0.0 mm
06:55 AM 42.1°F5.6°C 37.0°F2.8°C 82% 8.3 mph NNE13.4 kmh NNE 14.5 mph23.3 kmh 30.25 in1024.4 mb 0.00 in0.0 mm 0.00 in0.0 mm 0.00 in0.0 mm
07:00 AM 43.0°F6.1°C 37.5°F3.1°C 81% 9.7 mph NNE15.6 kmh NNE 15.2 mph24.5 kmh 30.25 in1024.4 mb 0.00 in0.0 mm 0.00 in0.0 mm 0.00 in0.0 mm
07:05 AM 43.7°F6.5°C 37.9°F3.3°C 80% 10.8 mph NNE17.4 kmh NNE 15.9 mph25.6 kmh 30.25 in1024.4 mb 0.00 in0.0 mm 0.00 in0.0 mm 0.00 in0.0 mm
07:10 AM 44.4°F6.9°C 38.0°F3.3°C 78% 10.5 mph NNE16.9 kmh NNE 15.9 mph25.6 kmh 30.25 in1024.4 mb 0.00 in0.0 mm 0.00 in0.0 mm 0.00 in0.0 mm
07:15 AM 45.1°F7.3°C 38.0°F3.3°C 76% 10.4 mph NNE16.7 kmh NNE 15.9 mph25.6 kmh 30.25 in1024.4 mb 0.00 in0.0 mm 0.00 in0.0 mm 0.00 in0.0 mm
07:20 AM 45.7°F7.6°C 37.9°F3.3°C 74% 11.0 mph NNE17.7 kmh NNE 15.9 mph25.6 kmh 30.25 in1024.4 mb 0.00 in0.0 mm 0.00 in0.0 mm 0.00 in0.0 mm
07:25 AM 46.6°F8.1°C 38.7°F3.7°C 74% 10.4 mph NNE16.7 kmh NNE 16.8 mph27.0 kmh 30.25 in1024.4 mb 0.00 in0.0 mm 0.00 in0.0 mm 0.00 in0.0 mm
07:30 AM 47.5°F8.6°C 38.9°F3.8°C 72% 10.4 mph NNE16.7 kmh NNE 18.3 mph29.5 kmh 30.24 in1024.0 mb 0.00 in0.0 mm 0.00 in0.0 mm 0.00 in0.0 mm
07:35 AM 48.0°F8.9°C 38.7°F3.7°C 70% 10.8 mph NNE17.4 kmh NNE 18.3 mph29.5 kmh 30.24 in1024.0 mb 0.00 in0.0 mm 0.00 in0.0 mm 0.00 in0.0 mm
07:40 AM 48.6°F9.2°C 38.5°F3.6°C 68% 11.2 mph NNE18.0 kmh NNE 15.9 mph25.6 kmh 30.24 in1024.0 mb 0.00 in0.0 mm 0.00 in0.0 mm 0.00 in0.0 mm
07:45 AM 49.1°F9.5°C 38.6°F3.7°C 67% 11.9 mph NNE19.2 kmh NNE 17.4 mph28.0 kmh 30.24 in1024.0 mb 0.00 in0.0 mm 0.00 in0.0 mm 0.00 in0.0 mm
07:50 AM 49.5°F9.7°C 38.6°F3.7°C 66% 12.0 mph NNE19.3 kmh NNE 17.4 mph28.0 kmh 30.24 in1024.0 mb 0.00 in0.0 mm 0.00 in0.0 mm 0.00 in0.0 mm
07:55 AM 50.0°F10.0°C 38.3°F3.5°C 64% 11.7 mph NNE18.8 kmh NNE 17.4 mph28.0 kmh 30.23 in1023.7 mb 0.00 in0.0 mm 0.00 in0.0 mm 0.00 in0.0 mm
08:00 AM 50.5°F10.3°C 38.8°F3.8°C 64% 11.1 mph NNE17.9 kmh NNE 17.4 mph28.0 kmh 30.24 in1024.0 mb 0.00 in0.0 mm 0.00 in0.0 mm 0.00 in0.0 mm
08:05 AM 50.7°F10.4°C 38.6°F3.7°C 63% 11.9 mph NNE19.2 kmh NNE 18.3 mph29.5 kmh 30.23 in1023.7 mb 0.00 in0.0 mm 0.00 in0.0 mm 0.00 in0.0 mm
08:10 AM 50.9°F10.5°C 38.7°F3.7°C 63% 13.0 mph NNE20.9 kmh NNE 18.3 mph29.5 kmh 30.23 in1023.7 mb 0.00 in0.0 mm 0.00 in0.0 mm 0.00 in0.0 mm
08:15 AM 50.9°F10.5°C 37.9°F3.3°C 61% 12.2 mph NNE19.6 kmh NNE 18.3 mph29.5 kmh 30.23 in1023.7 mb 0.00 in0.0 mm 0.00 in0.0 mm 0.00 in0.0 mm
08:20 AM 50.9°F10.5°C 38.3°F3.5°C 62% 10.9 mph NNE17.5 kmh NNE 18.3 mph29.5 kmh 30.23 in1023.7 mb 0.00 in0.0 mm 0.00 in0.0 mm 0.00 in0.0 mm
08:25 AM 51.4°F10.8°C 38.8°F3.8°C 62% 10.8 mph NNE17.4 kmh NNE 16.8 mph27.0 kmh 30.24 in1024.0 mb 0.00 in0.0 mm 0.00 in0.0 mm 0.00 in0.0 mm
08:30 AM 51.8°F11.0°C 38.3°F3.5°C 60% 11.5 mph NNE18.5 kmh NNE 16.8 mph27.0 kmh 30.23 in1023.7 mb 0.00 in0.0 mm 0.00 in0.0 mm 0.00 in0.0 mm
08:35 AM 52.2°F11.2°C 38.3°F3.5°C 59% 11.5 mph NNE18.5 kmh NNE 16.8 mph27.0 kmh 30.23 in1023.7 mb 0.00 in0.0 mm 0.00 in0.0 mm 0.00 in0.0 mm
08:40 AM 52.7°F11.5°C 38.8°F3.8°C 59% 11.6 mph NNE18.7 kmh NNE 17.4 mph28.0 kmh 30.23 in1023.7 mb 0.00 in0.0 mm 0.00 in0.0 mm 0.00 in0.0 mm
08:45 AM 52.9°F11.6°C 38.5°F3.6°C 58% 12.2 mph NNE19.6 kmh NNE 19.0 mph30.6 kmh 30.23 in1023.7 mb 0.00 in0.0 mm 0.00 in0.0 mm 0.00 in0.0 mm
08:50 AM 53.1°F11.7°C 38.7°F3.7°C 58% 12.1 mph NNE19.5 kmh NNE 19.0 mph30.6 kmh 30.23 in1023.7 mb 0.00 in0.0 mm 0.00 in0.0 mm 0.00 in0.0 mm
08:55 AM 53.4°F11.9°C 39.0°F3.9°C 58% 10.8 mph NNE17.4 kmh NNE 15.9 mph25.6 kmh 30.23 in1023.7 mb 0.00 in0.0 mm 0.00 in0.0 mm 0.00 in0.0 mm
09:00 AM 54.0°F12.2°C 38.6°F3.7°C 56% 10.8 mph NNE17.4 kmh NNE 16.8 mph27.0 kmh 30.23 in1023.7 mb 0.00 in0.0 mm 0.00 in0.0 mm 0.00 in0.0 mm
09:05 AM 54.1°F12.3°C 38.3°F3.5°C 55% 12.0 mph NNE19.3 kmh NNE 16.8 mph27.0 kmh 30.23 in1023.7 mb 0.00 in0.0 mm 0.00 in0.0 mm 0.00 in0.0 mm
09:10 AM 54.5°F12.5°C 38.7°F3.7°C 55% 11.5 mph NNE18.5 kmh NNE 16.8 mph27.0 kmh 30.23 in1023.7 mb 0.00 in0.0 mm 0.00 in0.0 mm 0.00 in0.0 mm
09:15 AM 54.9°F12.7°C 39.0°F3.9°C 55% 10.3 mph N16.6 kmh N 15.9 mph25.6 kmh 30.23 in1023.7 mb 0.00 in0.0 mm 0.00 in0.0 mm 0.00 in0.0 mm
09:20 AM 55.4°F13.0°C 39.5°F4.2°C 55% 10.3 mph N16.6 kmh N 15.9 mph25.6 kmh 30.22 in1023.4 mb 0.00 in0.0 mm 0.00 in0.0 mm 0.00 in0.0 mm
09:25 AM 55.4°F13.0°C 39.5°F4.2°C 55% 10.6 mph N17.1 kmh N 16.8 mph27.0 kmh 30.23 in1023.7 mb 0.00 in0.0 mm 0.00 in0.0 mm 0.00 in0.0 mm
09:30 AM 55.4°F13.0°C 39.5°F4.2°C 55% 10.2 mph N16.4 kmh N 16.8 mph27.0 kmh 30.22 in1023.4 mb 0.00 in0.0 mm 0.00 in0.0 mm 0.00 in0.0 mm
09:35 AM 55.9°F13.3°C 40.0°F4.4°C 55% 10.9 mph N17.5 kmh N 18.3 mph29.5 kmh 30.22 in1023.4 mb 0.00 in0.0 mm 0.00 in0.0 mm 0.00 in0.0 mm
09:40 AM 56.3°F13.5°C 39.9°F4.4°C 54% 11.6 mph N18.7 kmh N 18.3 mph29.5 kmh 30.22 in1023.4 mb 0.00 in0.0 mm 0.00 in0.0 mm 0.00 in0.0 mm
09:45 AM 56.7°F13.7°C 40.2°F4.6°C 54% 10.3 mph NNW16.6 kmh NNW 15.2 mph24.5 kmh 30.22 in1023.4 mb 0.00 in0.0 mm 0.00 in0.0 mm 0.00 in0.0 mm
09:50 AM 57.6°F14.2°C 40.1°F4.5°C 52% 9.5 mph NNW15.3 kmh NNW 14.5 mph23.3 kmh 30.22 in1023.4 mb 0.00 in0.0 mm 0.00 in0.0 mm 0.00 in0.0 mm
09:55 AM 58.1°F14.5°C 40.6°F4.8°C 52% 9.1 mph NW14.6 kmh NW 15.2 mph24.5 kmh 30.21 in1023.0 mb 0.00 in0.0 mm 0.00 in0.0 mm 0.00 in0.0 mm
10:00 AM 58.5°F14.7°C 39.9°F4.4°C 50% 9.8 mph W15.8 kmh W 16.8 mph27.0 kmh 30.21 in1023.0 mb 0.00 in0.0 mm 0.00 in0.0 mm 0.00 in0.0 mm
10:05 AM 58.6°F14.8°C 40.0°F4.4°C 50% 10.4 mph NW16.7 kmh NW 16.8 mph27.0 kmh 30.21 in1023.0 mb 0.00 in0.0 mm 0.00 in0.0 mm 0.00 in0.0 mm
10:10 AM 59.0°F15.0°C 39.9°F4.4°C 49% 10.1 mph NNW16.3 kmh NNW 15.2 mph24.5 kmh 30.20 in1022.7 mb 0.00 in0.0 mm 0.00 in0.0 mm 0.00 in0.0 mm
10:15 AM 59.2°F15.1°C 39.5°F4.2°C 48% 10.0 mph NNW16.1 kmh NNW 16.8 mph27.0 kmh 30.20 in1022.7 mb 0.00 in0.0 mm 0.00 in0.0 mm 0.00 in0.0 mm
10:20 AM 59.2°F15.1°C 39.5°F4.2°C 48% 9.6 mph N15.4 kmh N 16.8 mph27.0 kmh 30.20 in1022.7 mb 0.00 in0.0 mm 0.00 in0.0 mm 0.00 in0.0 mm
10:25 AM 59.7°F15.4°C 40.0°F4.4°C 48% 9.1 mph N14.6 kmh N 15.2 mph24.5 kmh 30.20 in1022.7 mb 0.00 in0.0 mm 0.00 in0.0 mm 0.00 in0.0 mm
10:30 AM 59.9°F15.5°C 40.1°F4.5°C 48% 8.9 mph N14.3 kmh N 15.2 mph24.5 kmh 30.20 in1022.7 mb 0.00 in0.0 mm 0.00 in0.0 mm 0.00 in0.0 mm
10:35 AM 59.9°F15.5°C 40.1°F4.5°C 48% 8.7 mph N14.0 kmh N 13.0 mph20.9 kmh 30.19 in1022.4 mb 0.00 in0.0 mm 0.00 in0.0 mm 0.00 in0.0 mm
10:40 AM 60.4°F15.8°C 40.1°F4.5°C 47% 8.7 mph N14.0 kmh N 15.9 mph25.6 kmh 30.19 in1022.4 mb 0.00 in0.0 mm 0.00 in0.0 mm 0.00 in0.0 mm
10:45 AM 61.3°F16.3°C 40.9°F4.9°C 47% 8.2 mph NNW13.2 kmh NNW 15.9 mph25.6 kmh 30.19 in1022.4 mb 0.00 in0.0 mm 0.00 in0.0 mm 0.00 in0.0 mm
10:50 AM 61.9°F16.6°C 40.9°F4.9°C 46% 7.5 mph NNW12.1 kmh NNW 13.6 mph21.9 kmh 30.19 in1022.4 mb 0.00 in0.0 mm 0.00 in0.0 mm 0.00 in0.0 mm
10:55 AM 62.6°F17.0°C 39.8°F4.3°C 43% 7.3 mph NNW11.7 kmh NNW 13.6 mph21.9 kmh 30.19 in1022.4 mb 0.00 in0.0 mm 0.00 in0.0 mm 0.00 in0.0 mm
11:00 AM 62.4°F16.9°C 40.2°F4.6°C 44% 8.0 mph N12.9 kmh N 13.6 mph21.9 kmh 30.19 in1022.4 mb 0.00 in0.0 mm 0.00 in0.0 mm 0.00 in0.0 mm
11:05 AM 63.1°F17.3°C 40.3°F4.6°C 43% 7.9 mph N12.7 kmh N 13.6 mph21.9 kmh 30.18 in1022.0 mb 0.00 in0.0 mm 0.00 in0.0 mm 0.00 in0.0 mm
11:10 AM 63.5°F17.5°C 40.6°F4.8°C 43% 7.5 mph N12.1 kmh N 14.5 mph23.3 kmh 30.18 in1022.0 mb 0.00 in0.0 mm 0.00 in0.0 mm 0.00 in0.0 mm
11:15 AM 63.3°F17.4°C 39.8°F4.3°C 42% 9.2 mph NNW14.8 kmh NNW 15.2 mph24.5 kmh 30.18 in1022.0 mb 0.00 in0.0 mm 0.00 in0.0 mm 0.00 in0.0 mm
11:20 AM 63.0°F17.2°C 40.1°F4.5°C 43% 9.2 mph NNW14.8 kmh NNW 15.2 mph24.5 kmh 30.18 in1022.0 mb 0.00 in0.0 mm 0.00 in0.0 mm 0.00 in0.0 mm
11:25 AM 63.0°F17.2°C 40.1°F4.5°C 43% 8.6 mph N13.8 kmh N 14.5 mph23.3 kmh 30.17 in1021.7 mb 0.00 in0.0 mm 0.00 in0.0 mm 0.00 in0.0 mm
11:30 AM 63.5°F17.5°C 40.6°F4.8°C 43% 8.5 mph N13.7 kmh N 13.0 mph20.9 kmh 30.17 in1021.7 mb 0.00 in0.0 mm 0.00 in0.0 mm 0.00 in0.0 mm
11:35 AM 64.0°F17.8°C 41.1°F5.1°C 43% 7.8 mph N12.6 kmh N 13.0 mph20.9 kmh 30.17 in1021.7 mb 0.00 in0.0 mm 0.00 in0.0 mm 0.00 in0.0 mm
11:40 AM 64.6°F18.1°C 41.6°F5.3°C 43% 8.2 mph NNW13.2 kmh NNW 15.9 mph25.6 kmh 30.17 in1021.7 mb 0.00 in0.0 mm 0.00 in0.0 mm 0.00 in0.0 mm
11:45 AM 64.2°F17.9°C 40.6°F4.8°C 42% 8.6 mph N13.8 kmh N 15.9 mph25.6 kmh 30.16 in1021.3 mb 0.00 in0.0 mm 0.00 in0.0 mm 0.00 in0.0 mm
11:50 AM 64.4°F18.0°C 41.4°F5.2°C 43% 8.3 mph N13.4 kmh N 13.0 mph20.9 kmh 30.16 in1021.3 mb 0.00 in0.0 mm 0.00 in0.0 mm 0.00 in0.0 mm
11:55 AM 64.8°F18.2°C 41.7°F5.4°C 43% 8.8 mph NNW14.2 kmh NNW 13.6 mph21.9 kmh 30.16 in1021.3 mb 0.00 in0.0 mm 0.00 in0.0 mm 0.00 in0.0 mm
12:00 PM 64.0°F17.8°C 40.5°F4.7°C 42% 9.0 mph NW14.5 kmh NW 15.9 mph25.6 kmh 30.16 in1021.3 mb 0.00 in0.0 mm 0.00 in0.0 mm 0.00 in0.0 mm
12:05 PM 63.9°F17.7°C 40.3°F4.6°C 42% 9.2 mph WSW14.8 kmh WSW 15.9 mph25.6 kmh 30.16 in1021.3 mb 0.00 in0.0 mm 0.00 in0.0 mm 0.00 in0.0 mm
12:10 PM 64.0°F17.8°C 40.5°F4.7°C 42% 9.4 mph WSW15.1 kmh WSW 15.9 mph25.6 kmh 30.16 in1021.3 mb 0.00 in0.0 mm 0.00 in0.0 mm 0.00 in0.0 mm
12:15 PM 63.9°F17.7°C 40.3°F4.6°C 42% 9.5 mph WSW15.3 kmh WSW 15.9 mph25.6 kmh 30.15 in1021.0 mb 0.00 in0.0 mm 0.00 in0.0 mm 0.00 in0.0 mm
12:20 PM 64.0°F17.8°C 40.5°F4.7°C 42% 9.5 mph W15.3 kmh W 14.5 mph23.3 kmh 30.15 in1021.0 mb 0.00 in0.0 mm 0.00 in0.0 mm 0.00 in0.0 mm
12:25 PM 63.9°F17.7°C 40.3°F4.6°C 42% 9.7 mph WNW15.6 kmh WNW 15.9 mph25.6 kmh 30.15 in1021.0 mb 0.00 in0.0 mm 0.00 in0.0 mm 0.00 in0.0 mm
12:30 PM 64.0°F17.8°C 40.5°F4.7°C 42% 9.7 mph NW15.6 kmh NW 15.9 mph25.6 kmh 30.14 in1020.7 mb 0.00 in0.0 mm 0.00 in0.0 mm 0.00 in0.0 mm
12:35 PM 64.4°F18.0°C 40.8°F4.9°C 42% 9.9 mph NW15.9 kmh NW 14.5 mph23.3 kmh 30.14 in1020.7 mb 0.00 in0.0 mm 0.00 in0.0 mm 0.00 in0.0 mm
12:40 PM 64.4°F18.0°C 40.8°F4.9°C 42% 9.9 mph W15.9 kmh W 14.5 mph23.3 kmh 30.14 in1020.7 mb 0.00 in0.0 mm 0.00 in0.0 mm 0.00 in0.0 mm
12:45 PM 64.2°F17.9°C 40.6°F4.8°C 42% 9.4 mph W15.1 kmh W 15.2 mph24.5 kmh 30.14 in1020.7 mb 0.00 in0.0 mm 0.00 in0.0 mm 0.00 in0.0 mm
12:50 PM 64.6°F18.1°C 41.0°F5.0°C 42% 8.6 mph WNW13.8 kmh WNW 15.2 mph24.5 kmh 30.13 in1020.3 mb 0.00 in0.0 mm 0.00 in0.0 mm 0.00 in0.0 mm
12:55 PM 64.9°F18.3°C 41.3°F5.2°C 42% 9.5 mph WNW15.3 kmh WNW 15.9 mph25.6 kmh 30.13 in1020.3 mb 0.00 in0.0 mm 0.00 in0.0 mm 0.00 in0.0 mm
01:00 PM 64.6°F18.1°C 41.0°F5.0°C 42% 10.4 mph W16.7 kmh W 17.4 mph28.0 kmh 30.13 in1020.3 mb 0.00 in0.0 mm 0.00 in0.0 mm 0.00 in0.0 mm
01:05 PM 63.9°F17.7°C 40.3°F4.6°C 42% 10.4 mph W16.7 kmh W 17.4 mph28.0 kmh 30.12 in1020.0 mb 0.00 in0.0 mm 0.00 in0.0 mm 0.00 in0.0 mm
01:10 PM 63.3°F17.4°C 39.8°F4.3°C 42% 10.6 mph NW17.1 kmh NW 16.8 mph27.0 kmh 30.12 in1020.0 mb 0.00 in0.0 mm 0.00 in0.0 mm 0.00 in0.0 mm
01:15 PM 63.3°F17.4°C 39.8°F4.3°C 42% 10.2 mph NW16.4 kmh NW 15.9 mph25.6 kmh 30.12 in1020.0 mb 0.00 in0.0 mm 0.00 in0.0 mm 0.00 in0.0 mm
01:20 PM 63.3°F17.4°C 39.8°F4.3°C 42% 10.1 mph W16.3 kmh W 15.9 mph25.6 kmh 30.11 in1019.6 mb 0.00 in0.0 mm 0.00 in0.0 mm 0.00 in0.0 mm
01:25 PM 63.3°F17.4°C 39.8°F4.3°C 42% 10.7 mph WNW17.2 kmh WNW 15.2 mph24.5 kmh 30.11 in1019.6 mb 0.00 in0.0 mm 0.00 in0.0 mm 0.00 in0.0 mm
01:30 PM 63.1°F17.3°C 39.7°F4.3°C 42% 11.7 mph NW18.8 kmh NW 17.4 mph28.0 kmh 30.11 in1019.6 mb 0.00 in0.0 mm 0.00 in0.0 mm 0.00 in0.0 mm
01:35 PM 62.4°F16.9°C 39.6°F4.2°C 43% 12.0 mph NW19.3 kmh NW 18.3 mph29.5 kmh 30.11 in1019.6 mb 0.00 in0.0 mm 0.00 in0.0 mm 0.00 in0.0 mm
01:40 PM 62.2°F16.8°C 40.0°F4.4°C 44% 11.9 mph NNW19.2 kmh NNW 18.3 mph29.5 kmh 30.10 in1019.3 mb 0.00 in0.0 mm 0.00 in0.0 mm 0.00 in0.0 mm
01:45 PM 61.9°F16.6°C 39.7°F4.3°C 44% 11.6 mph NW18.7 kmh NW 18.3 mph29.5 kmh 30.10 in1019.3 mb 0.00 in0.0 mm 0.00 in0.0 mm 0.00 in0.0 mm
01:50 PM 61.7°F16.5°C 39.6°F4.2°C 44% 11.8 mph W19.0 kmh W 18.3 mph29.5 kmh 30.09 in1019.0 mb 0.00 in0.0 mm 0.00 in0.0 mm 0.00 in0.0 mm
01:55 PM 61.9°F16.6°C 40.3°F4.6°C 45% 11.4 mph W18.3 kmh W 18.3 mph29.5 kmh 30.09 in1019.0 mb 0.00 in0.0 mm 0.00 in0.0 mm 0.00 in0.0 mm
02:00 PM 61.9°F16.6°C 39.7°F4.3°C 44% 10.8 mph WNW17.4 kmh WNW 17.4 mph28.0 kmh 30.09 in1019.0 mb 0.00 in0.0 mm 0.00 in0.0 mm 0.00 in0.0 mm
02:05 PM 61.7°F16.5°C 39.6°F4.2°C 44% 11.5 mph WNW18.5 kmh WNW 19.7 mph31.7 kmh 30.09 in1019.0 mb 0.00 in0.0 mm 0.00 in0.0 mm 0.00 in0.0 mm
02:10 PM 61.3°F16.3°C 39.8°F4.3°C 45% 12.1 mph NW19.5 kmh NW 19.7 mph31.7 kmh 30.09 in1019.0 mb 0.00 in0.0 mm 0.00 in0.0 mm 0.00 in0.0 mm
02:15 PM 61.7°F16.5°C 40.1°F4.5°C 45% 11.9 mph NNW19.2 kmh NNW 17.4 mph28.0 kmh 30.08 in1018.6 mb 0.00 in0.0 mm 0.00 in0.0 mm 0.00 in0.0 mm
02:20 PM 61.7°F16.5°C 40.1°F4.5°C 45% 11.6 mph NNW18.7 kmh NNW 16.8 mph27.0 kmh 30.08 in1018.6 mb 0.00 in0.0 mm 0.00 in0.0 mm 0.00 in0.0 mm
02:25 PM 61.2°F16.2°C 39.6°F4.2°C 45% 11.8 mph NW19.0 kmh NW 17.4 mph28.0 kmh 30.07 in1018.3 mb 0.00 in0.0 mm 0.00 in0.0 mm 0.00 in0.0 mm
02:30 PM 61.0°F16.1°C 39.5°F4.2°C 45% 12.3 mph NW19.8 kmh NW 17.4 mph28.0 kmh 30.07 in1018.3 mb 0.00 in0.0 mm 0.00 in0.0 mm 0.00 in0.0 mm
02:35 PM 60.8°F16.0°C 39.3°F4.1°C 45% 12.9 mph NW20.8 kmh NW 19.7 mph31.7 kmh 30.07 in1018.3 mb 0.00 in0.0 mm 0.00 in0.0 mm 0.00 in0.0 mm
02:40 PM 60.8°F16.0°C 39.9°F4.4°C 46% 12.7 mph NW20.4 kmh NW 19.7 mph31.7 kmh 30.07 in1018.3 mb 0.00 in0.0 mm 0.00 in0.0 mm 0.00 in0.0 mm
02:45 PM 60.8°F16.0°C 39.3°F4.1°C 45% 12.2 mph NNW19.6 kmh NNW 18.3 mph29.5 kmh 30.06 in1017.9 mb 0.00 in0.0 mm 0.00 in0.0 mm 0.00 in0.0 mm
02:50 PM 61.0°F16.1°C 39.5°F4.2°C 45% 12.6 mph NW20.3 kmh NW 18.3 mph29.5 kmh 30.06 in1017.9 mb 0.00 in0.0 mm 0.00 in0.0 mm 0.00 in0.0 mm
02:55 PM 61.0°F16.1°C 39.5°F4.2°C 45% 12.4 mph NW20.0 kmh NW 18.3 mph29.5 kmh 30.06 in1017.9 mb 0.00 in0.0 mm 0.00 in0.0 mm 0.00 in0.0 mm
03:00 PM 61.2°F16.2°C 39.6°F4.2°C 45% 12.5 mph NNW20.1 kmh NNW 18.3 mph29.5 kmh 30.05 in1017.6 mb 0.00 in0.0 mm 0.00 in0.0 mm 0.00 in0.0 mm
03:05 PM 60.4°F15.8°C 39.5°F4.2°C 46% 13.0 mph NW20.9 kmh NW 19.0 mph30.6 kmh 30.05 in1017.6 mb 0.00 in0.0 mm 0.00 in0.0 mm 0.00 in0.0 mm
03:10 PM 60.3°F15.7°C 39.9°F4.4°C 47% 12.5 mph NNW20.1 kmh NNW 19.0 mph30.6 kmh 30.04 in1017.3 mb 0.00 in0.0 mm 0.00 in0.0 mm 0.00 in0.0 mm
03:15 PM 60.1°F15.6°C 39.8°F4.3°C 47% 12.2 mph N19.6 kmh N 18.3 mph29.5 kmh 30.04 in1017.3 mb 0.00 in0.0 mm 0.00 in0.0 mm 0.00 in0.0 mm
03:20 PM 60.1°F15.6°C 39.8°F4.3°C 47% 12.2 mph NNW19.6 kmh NNW 19.0 mph30.6 kmh 30.04 in1017.3 mb 0.00 in0.0 mm 0.00 in0.0 mm 0.00 in0.0 mm
03:25 PM 59.9°F15.5°C 39.6°F4.2°C 47% 12.0 mph N19.3 kmh N 19.0 mph30.6 kmh 30.04 in1017.3 mb 0.00 in0.0 mm 0.00 in0.0 mm 0.00 in0.0 mm
03:30 PM 59.4°F15.2°C 39.1°F3.9°C 47% 13.0 mph N20.9 kmh N 19.7 mph31.7 kmh 30.04 in1017.3 mb 0.00 in0.0 mm 0.00 in0.0 mm 0.00 in0.0 mm
03:35 PM 58.8°F14.9°C 39.7°F4.3°C 49% 13.2 mph N21.2 kmh N 19.7 mph31.7 kmh 30.03 in1016.9 mb 0.00 in0.0 mm 0.00 in0.0 mm 0.00 in0.0 mm
03:40 PM 57.9°F14.4°C 39.4°F4.1°C 50% 12.8 mph N20.6 kmh N 17.4 mph28.0 kmh 30.03 in1016.9 mb 0.00 in0.0 mm 0.00 in0.0 mm 0.00 in0.0 mm
03:45 PM 57.6°F14.2°C 39.0°F3.9°C 50% 12.9 mph NNW20.8 kmh NNW 18.3 mph29.5 kmh 30.02 in1016.6 mb 0.00 in0.0 mm 0.00 in0.0 mm 0.00 in0.0 mm
03:50 PM 57.0°F13.9°C 39.6°F4.2°C 52% 12.6 mph NNW20.3 kmh NNW 18.3 mph29.5 kmh 30.03 in1016.9 mb 0.00 in0.0 mm 0.00 in0.0 mm 0.00 in0.0 mm
03:55 PM 57.2°F14.0°C 39.7°F4.3°C 52% 12.1 mph NNW19.5 kmh NNW 16.8 mph27.0 kmh 30.02 in1016.6 mb 0.00 in0.0 mm 0.00 in0.0 mm 0.00 in0.0 mm
04:00 PM 57.0°F13.9°C 39.6°F4.2°C 52% 12.1 mph NNW19.5 kmh NNW 16.8 mph27.0 kmh 30.02 in1016.6 mb 0.00 in0.0 mm 0.00 in0.0 mm 0.00 in0.0 mm
04:05 PM 57.4°F14.1°C 39.4°F4.1°C 51% 12.5 mph N20.1 kmh N 17.4 mph28.0 kmh 30.02 in1016.6 mb 0.00 in0.0 mm 0.00 in0.0 mm 0.00 in0.0 mm
04:10 PM 57.4°F14.1°C 39.4°F4.1°C 51% 12.7 mph N20.4 kmh N 17.4 mph28.0 kmh 30.02 in1016.6 mb 0.00 in0.0 mm 0.00 in0.0 mm 0.00 in0.0 mm
04:15 PM 57.0°F13.9°C 39.6°F4.2°C 52% 12.8 mph NNW20.6 kmh NNW 17.4 mph28.0 kmh 30.02 in1016.6 mb 0.00 in0.0 mm 0.00 in0.0 mm 0.00 in0.0 mm
04:20 PM 56.7°F13.7°C 39.7°F4.3°C 53% 12.0 mph NNW19.3 kmh NNW 18.3 mph29.5 kmh 30.02 in1016.6 mb 0.00 in0.0 mm 0.00 in0.0 mm 0.00 in0.0 mm
04:25 PM 55.6°F13.1°C 38.7°F3.7°C 53% 11.8 mph NNW19.0 kmh NNW 18.3 mph29.5 kmh 30.01 in1016.3 mb 0.00 in0.0 mm 0.00 in0.0 mm 0.00 in0.0 mm
04:30 PM 54.5°F12.5°C 38.2°F3.4°C 54% 12.3 mph NNW19.8 kmh NNW 18.3 mph29.5 kmh 30.01 in1016.3 mb 0.00 in0.0 mm 0.00 in0.0 mm 0.00 in0.0 mm
04:35 PM 53.6°F12.0°C 37.8°F3.2°C 55% 11.5 mph NNW18.5 kmh NNW 18.3 mph29.5 kmh 30.01 in1016.3 mb 0.00 in0.0 mm 0.00 in0.0 mm 0.00 in0.0 mm
04:40 PM 52.9°F11.6°C 38.5°F3.6°C 58% 10.7 mph NW17.2 kmh NW 15.9 mph25.6 kmh 30.00 in1015.9 mb 0.00 in0.0 mm 0.00 in0.0 mm 0.00 in0.0 mm
04:45 PM 52.0°F11.1°C 38.5°F3.6°C 60% 10.7 mph NW17.2 kmh NW 16.8 mph27.0 kmh 30.00 in1015.9 mb 0.00 in0.0 mm 0.00 in0.0 mm 0.00 in0.0 mm
04:50 PM 51.3°F10.7°C 38.7°F3.7°C 62% 10.8 mph N17.4 kmh N 16.8 mph27.0 kmh 30.00 in1015.9 mb 0.00 in0.0 mm 0.00 in0.0 mm 0.00 in0.0 mm
04:55 PM 51.1°F10.6°C 38.9°F3.8°C 63% 10.6 mph N17.1 kmh N 15.9 mph25.6 kmh 30.00 in1015.9 mb 0.00 in0.0 mm 0.00 in0.0 mm 0.00 in0.0 mm
05:00 PM 50.7°F10.4°C 38.6°F3.7°C 63% 10.7 mph N17.2 kmh N 15.9 mph25.6 kmh 30.00 in1015.9 mb 0.00 in0.0 mm 0.00 in0.0 mm 0.00 in0.0 mm
05:05 PM 50.4°F10.2°C 38.6°F3.7°C 64% 10.0 mph NNW16.1 kmh NNW 15.2 mph24.5 kmh 30.00 in1015.9 mb 0.00 in0.0 mm 0.00 in0.0 mm 0.00 in0.0 mm
05:10 PM 50.2°F10.1°C 38.9°F3.8°C 65% 9.7 mph NW15.6 kmh NW 13.6 mph21.9 kmh 29.99 in1015.6 mb 0.00 in0.0 mm 0.00 in0.0 mm 0.00 in0.0 mm
05:15 PM 50.0°F10.0°C 38.7°F3.7°C 65% 9.4 mph NW15.1 kmh NW 13.6 mph21.9 kmh 30.00 in1015.9 mb 0.00 in0.0 mm 0.00 in0.0 mm 0.00 in0.0 mm
05:20 PM 49.8°F9.9°C 38.9°F3.8°C 66% 9.8 mph NNW15.8 kmh NNW 15.2 mph24.5 kmh 29.99 in1015.6 mb 0.00 in0.0 mm 0.00 in0.0 mm 0.00 in0.0 mm
05:25 PM 49.6°F9.8°C 39.1°F3.9°C 67% 10.6 mph NNW17.1 kmh NNW 15.2 mph24.5 kmh 29.99 in1015.6 mb 0.00 in0.0 mm 0.00 in0.0 mm 0.00 in0.0 mm
05:30 PM 49.3°F9.6°C 38.8°F3.8°C 67% 9.8 mph NNW15.8 kmh NNW 14.5 mph23.3 kmh 29.99 in1015.6 mb 0.00 in0.0 mm 0.00 in0.0 mm 0.00 in0.0 mm
05:35 PM 49.1°F9.5°C 38.6°F3.7°C 67% 9.7 mph NNW15.6 kmh NNW 13.6 mph21.9 kmh 29.99 in1015.6 mb 0.00 in0.0 mm 0.00 in0.0 mm 0.00 in0.0 mm
05:40 PM 48.9°F9.4°C 38.8°F3.8°C 68% 10.1 mph NNW16.3 kmh NNW 15.9 mph25.6 kmh 29.99 in1015.6 mb 0.00 in0.0 mm 0.00 in0.0 mm 0.00 in0.0 mm
05:45 PM 48.6°F9.2°C 38.5°F3.6°C 68% 9.1 mph NNW14.6 kmh NNW 15.9 mph25.6 kmh 29.99 in1015.6 mb 0.00 in0.0 mm 0.00 in0.0 mm 0.00 in0.0 mm
05:50 PM 48.2°F9.0°C 38.5°F3.6°C 69% 8.5 mph NNW13.7 kmh NNW 14.5 mph23.3 kmh 29.98 in1015.2 mb 0.00 in0.0 mm 0.00 in0.0 mm 0.00 in0.0 mm
05:55 PM 47.8°F8.8°C 38.5°F3.6°C 70% 9.7 mph N15.6 kmh N 13.6 mph21.9 kmh 29.98 in1015.2 mb 0.00 in0.0 mm 0.00 in0.0 mm 0.00 in0.0 mm
06:00 PM 47.5°F8.6°C 38.5°F3.6°C 71% 9.8 mph N15.8 kmh N 13.6 mph21.9 kmh 29.98 in1015.2 mb 0.00 in0.0 mm 0.00 in0.0 mm 0.00 in0.0 mm
06:05 PM 47.1°F8.4°C 38.2°F3.4°C 71% 8.8 mph NNW14.2 kmh NNW 13.0 mph20.9 kmh 29.98 in1015.2 mb 0.00 in0.0 mm 0.00 in0.0 mm 0.00 in0.0 mm
06:10 PM 46.8°F8.2°C 38.2°F3.4°C 72% 8.3 mph NNW13.4 kmh NNW 12.1 mph19.5 kmh 29.98 in1015.2 mb 0.00 in0.0 mm 0.00 in0.0 mm 0.00 in0.0 mm
06:15 PM 46.6°F8.1°C 38.0°F3.3°C 72% 8.4 mph NNW13.5 kmh NNW 13.6 mph21.9 kmh 29.98 in1015.2 mb 0.00 in0.0 mm 0.00 in0.0 mm 0.00 in0.0 mm
06:20 PM 46.2°F7.9°C 38.0°F3.3°C 73% 7.9 mph NNW12.7 kmh NNW 13.6 mph21.9 kmh 29.98 in1015.2 mb 0.00 in0.0 mm 0.00 in0.0 mm 0.00 in0.0 mm
06:25 PM 46.0°F7.8°C 37.9°F3.3°C 73% 7.5 mph NNW12.1 kmh NNW 10.7 mph17.2 kmh 29.98 in1015.2 mb 0.00 in0.0 mm 0.00 in0.0 mm 0.00 in0.0 mm
06:30 PM 45.7°F7.6°C 37.9°F3.3°C 74% 7.1 mph NNW11.4 kmh NNW 10.7 mph17.2 kmh 29.98 in1015.2 mb 0.00 in0.0 mm 0.00 in0.0 mm 0.00 in0.0 mm
06:35 PM 45.5°F7.5°C 37.7°F3.2°C 74% 6.3 mph NNW10.1 kmh NNW 9.8 mph15.8 kmh 29.97 in1014.9 mb 0.00 in0.0 mm 0.00 in0.0 mm 0.00 in0.0 mm
06:40 PM 45.3°F7.4°C 37.9°F3.3°C 75% 6.7 mph NNW10.8 kmh NNW 10.7 mph17.2 kmh 29.97 in1014.9 mb 0.00 in0.0 mm 0.00 in0.0 mm 0.00 in0.0 mm
06:45 PM 45.1°F7.3°C 37.7°F3.2°C 75% 6.6 mph NNW10.6 kmh NNW 10.7 mph17.2 kmh 29.97 in1014.9 mb 0.00 in0.0 mm 0.00 in0.0 mm 0.00 in0.0 mm
06:50 PM 44.8°F7.1°C 37.7°F3.2°C 76% 5.4 mph NNW8.7 kmh NNW 9.8 mph15.8 kmh 29.97 in1014.9 mb 0.00 in0.0 mm 0.00 in0.0 mm 0.00 in0.0 mm
06:55 PM 44.8°F7.1°C 37.7°F3.2°C 76% 5.3 mph NNW8.5 kmh NNW 9.8 mph15.8 kmh 29.96 in1014.6 mb 0.00 in0.0 mm 0.00 in0.0 mm 0.00 in0.0 mm
07:00 PM 44.6°F7.0°C 37.8°F3.2°C 77% 5.5 mph NNW8.9 kmh NNW 9.8 mph15.8 kmh 29.97 in1014.9 mb 0.00 in0.0 mm 0.00 in0.0 mm 0.00 in0.0 mm
07:05 PM 44.4°F6.9°C 38.0°F3.3°C 78% 4.6 mph NNW7.4 kmh NNW 8.3 mph13.4 kmh 29.96 in1014.6 mb 0.00 in0.0 mm 0.00 in0.0 mm 0.00 in0.0 mm
07:10 PM 44.2°F6.8°C 38.1°F3.4°C 79% 3.7 mph NNW6.0 kmh NNW 6.0 mph9.7 kmh 29.96 in1014.6 mb 0.00 in0.0 mm 0.00 in0.0 mm 0.00 in0.0 mm
07:15 PM 44.1°F6.7°C 38.0°F3.3°C 79% 3.5 mph NNW5.6 kmh NNW 6.0 mph9.7 kmh 29.97 in1014.9 mb 0.00 in0.0 mm 0.00 in0.0 mm 0.00 in0.0 mm
07:20 PM 43.9°F6.6°C 38.1°F3.4°C 80% 3.3 mph NNW5.3 kmh NNW 6.0 mph9.7 kmh 29.97 in1014.9 mb 0.00 in0.0 mm 0.00 in0.0 mm 0.00 in0.0 mm
07:25 PM 43.7°F6.5°C 37.9°F3.3°C 80% 3.0 mph NNW4.8 kmh NNW 5.4 mph8.7 kmh 29.96 in1014.6 mb 0.00 in0.0 mm 0.00 in0.0 mm 0.00 in0.0 mm
07:30 PM 43.5°F6.4°C 37.8°F3.2°C 80% 3.4 mph NNW5.5 kmh NNW 5.4 mph8.7 kmh 29.96 in1014.6 mb 0.00 in0.0 mm 0.00 in0.0 mm 0.00 in0.0 mm
07:35 PM 43.5°F6.4°C 38.1°F3.4°C 81% 4.2 mph N6.8 kmh N 7.6 mph12.2 kmh 29.96 in1014.6 mb 0.00 in0.0 mm 0.00 in0.0 mm 0.00 in0.0 mm
07:40 PM 43.3°F6.3°C 38.2°F3.4°C 82% 4.7 mph N7.6 kmh N 7.6 mph12.2 kmh 29.96 in1014.6 mb 0.00 in0.0 mm 0.00 in0.0 mm 0.00 in0.0 mm
07:45 PM 43.3°F6.3°C 38.2°F3.4°C 82% 5.2 mph N8.4 kmh N 7.6 mph12.2 kmh 29.96 in1014.6 mb 0.00 in0.0 mm 0.00 in0.0 mm 0.00 in0.0 mm
07:50 PM 43.2°F6.2°C 38.0°F3.3°C 82% 5.5 mph N8.9 kmh N 9.2 mph14.8 kmh 29.96 in1014.6 mb 0.00 in0.0 mm 0.00 in0.0 mm 0.00 in0.0 mm
07:55 PM 43.2°F6.2°C 38.0°F3.3°C 82% 6.0 mph N9.7 kmh N 9.2 mph14.8 kmh 29.96 in1014.6 mb 0.00 in0.0 mm 0.00 in0.0 mm 0.00 in0.0 mm
08:00 PM 43.2°F6.2°C 38.0°F3.3°C 82% 6.2 mph N10.0 kmh N 9.2 mph14.8 kmh 29.96 in1014.6 mb 0.00 in0.0 mm 0.00 in0.0 mm 0.00 in0.0 mm
08:05 PM 43.0°F6.1°C 37.9°F3.3°C 82% 6.0 mph NNW9.7 kmh NNW 9.2 mph14.8 kmh 29.96 in1014.6 mb 0.00 in0.0 mm 0.00 in0.0 mm 0.00 in0.0 mm
08:10 PM 42.8°F6.0°C 37.7°F3.2°C 82% 6.0 mph NNW9.7 kmh NNW 9.2 mph14.8 kmh 29.96 in1014.6 mb 0.00 in0.0 mm 0.00 in0.0 mm 0.00 in0.0 mm
08:15 PM 42.8°F6.0°C 37.7°F3.2°C 82% 6.4 mph NW10.3 kmh NW 9.2 mph14.8 kmh 29.95 in1014.2 mb 0.00 in0.0 mm 0.00 in0.0 mm 0.00 in0.0 mm
08:20 PM 42.8°F6.0°C 38.0°F3.3°C 83% 6.5 mph WNW10.5 kmh WNW 9.2 mph14.8 kmh 29.95 in1014.2 mb 0.00 in0.0 mm 0.00 in0.0 mm 0.00 in0.0 mm
08:25 PM 42.6°F5.9°C 38.1°F3.4°C 84% 6.2 mph NW10.0 kmh NW 9.2 mph14.8 kmh 29.95 in1014.2 mb 0.00 in0.0 mm 0.00 in0.0 mm 0.00 in0.0 mm
08:30 PM 42.6°F5.9°C 38.1°F3.4°C 84% 5.6 mph N9.0 kmh N 8.3 mph13.4 kmh 29.94 in1013.9 mb 0.00 in0.0 mm 0.00 in0.0 mm 0.00 in0.0 mm
08:35 PM 42.4°F5.8°C 37.9°F3.3°C 84% 5.0 mph NNW8.0 kmh NNW 8.3 mph13.4 kmh 29.94 in1013.9 mb 0.00 in0.0 mm 0.00 in0.0 mm 0.00 in0.0 mm
08:40 PM 42.1°F5.6°C 37.6°F3.1°C 84% 4.9 mph WNW7.9 kmh WNW 8.3 mph13.4 kmh 29.94 in1013.9 mb 0.00 in0.0 mm 0.00 in0.0 mm 0.00 in0.0 mm
08:45 PM 41.9°F5.5°C 37.4°F3.0°C 84% 5.5 mph WNW8.9 kmh WNW 9.2 mph14.8 kmh 29.94 in1013.9 mb 0.00 in0.0 mm 0.00 in0.0 mm 0.00 in0.0 mm
08:50 PM 41.9°F5.5°C 37.4°F3.0°C 84% 6.2 mph NW10.0 kmh NW 9.8 mph15.8 kmh 29.94 in1013.9 mb 0.00 in0.0 mm 0.00 in0.0 mm 0.00 in0.0 mm
08:55 PM 41.9°F5.5°C 37.4°F3.0°C 84% 6.6 mph NNW10.6 kmh NNW 9.8 mph15.8 kmh 29.93 in1013.5 mb 0.00 in0.0 mm 0.00 in0.0 mm 0.00 in0.0 mm
09:00 PM 41.7°F5.4°C 37.2°F2.9°C 84% 6.1 mph NW9.8 kmh NW 9.8 mph15.8 kmh 29.93 in1013.5 mb 0.00 in0.0 mm 0.00 in0.0 mm 0.00 in0.0 mm
09:05 PM 41.7°F5.4°C 37.2°F2.9°C 84% 6.0 mph WNW9.7 kmh WNW 10.7 mph17.2 kmh 29.93 in1013.5 mb 0.00 in0.0 mm 0.00 in0.0 mm 0.00 in0.0 mm
09:10 PM 41.5°F5.3°C 37.1°F2.8°C 84% 6.5 mph WNW10.5 kmh WNW 10.7 mph17.2 kmh 29.93 in1013.5 mb 0.00 in0.0 mm 0.00 in0.0 mm 0.00 in0.0 mm
09:15 PM 41.5°F5.3°C 37.1°F2.8°C 84% 6.6 mph W10.6 kmh W 11.4 mph18.3 kmh 29.93 in1013.5 mb 0.00 in0.0 mm 0.00 in0.0 mm 0.00 in0.0 mm
09:20 PM 41.4°F5.2°C 36.9°F2.7°C 84% 5.3 mph WSW8.5 kmh WSW 11.4 mph18.3 kmh 29.93 in1013.5 mb 0.00 in0.0 mm 0.00 in0.0 mm 0.00 in0.0 mm
09:25 PM 41.2°F5.1°C 36.7°F2.6°C 84% 4.8 mph WSW7.7 kmh WSW 9.2 mph14.8 kmh 29.92 in1013.2 mb 0.00 in0.0 mm 0.00 in0.0 mm 0.00 in0.0 mm
09:30 PM 41.0°F5.0°C 36.5°F2.5°C 84% 4.9 mph WSW7.9 kmh WSW 9.2 mph14.8 kmh 29.92 in1013.2 mb 0.00 in0.0 mm 0.00 in0.0 mm 0.00 in0.0 mm
09:35 PM 40.8°F4.9°C 36.7°F2.6°C 85% 4.2 mph WSW6.8 kmh WSW 7.6 mph12.2 kmh 29.92 in1013.2 mb 0.00 in0.0 mm 0.00 in0.0 mm 0.00 in0.0 mm
09:40 PM 40.6°F4.8°C 36.5°F2.5°C 85% 3.8 mph WSW6.1 kmh WSW 6.9 mph11.1 kmh 29.91 in1012.9 mb 0.00 in0.0 mm 0.00 in0.0 mm 0.00 in0.0 mm
09:45 PM 40.5°F4.7°C 36.3°F2.4°C 85% 3.8 mph WSW6.1 kmh WSW 7.6 mph12.2 kmh 29.91 in1012.9 mb 0.00 in0.0 mm 0.00 in0.0 mm 0.00 in0.0 mm
09:50 PM 40.3°F4.6°C 36.1°F2.3°C 85% 3.8 mph W6.1 kmh W 7.6 mph12.2 kmh 29.91 in1012.9 mb 0.00 in0.0 mm 0.00 in0.0 mm 0.00 in0.0 mm
09:55 PM 40.3°F4.6°C 36.1°F2.3°C 85% 4.0 mph WNW6.4 kmh WNW 7.6 mph12.2 kmh 29.91 in1012.9 mb 0.00 in0.0 mm 0.00 in0.0 mm 0.00 in0.0 mm
10:00 PM 40.3°F4.6°C 36.1°F2.3°C 85% 4.4 mph W7.1 kmh W 9.8 mph15.8 kmh 29.90 in1012.5 mb 0.00 in0.0 mm 0.00 in0.0 mm 0.00 in0.0 mm
10:05 PM 40.1°F4.5°C 36.0°F2.2°C 85% 4.3 mph WNW6.9 kmh WNW 9.8 mph15.8 kmh 29.90 in1012.5 mb 0.00 in0.0 mm 0.00 in0.0 mm 0.00 in0.0 mm
10:10 PM 40.1°F4.5°C 36.0°F2.2°C 85% 4.0 mph WSW6.4 kmh WSW 6.9 mph11.1 kmh 29.89 in1012.2 mb 0.00 in0.0 mm 0.00 in0.0 mm 0.00 in0.0 mm
10:15 PM 39.9°F4.4°C 35.8°F2.1°C 85% 4.0 mph WNW6.4 kmh WNW 7.6 mph12.2 kmh 29.89 in1012.2 mb 0.00 in0.0 mm 0.00 in0.0 mm 0.00 in0.0 mm
10:20 PM 39.9°F4.4°C 36.1°F2.3°C 86% 3.8 mph WNW6.1 kmh WNW 7.6 mph12.2 kmh 29.89 in1012.2 mb 0.00 in0.0 mm 0.00 in0.0 mm 0.00 in0.0 mm
10:25 PM 39.9°F4.4°C 36.1°F2.3°C 86% 3.6 mph WSW5.8 kmh WSW 6.9 mph11.1 kmh 29.89 in1012.2 mb 0.00 in0.0 mm 0.00 in0.0 mm 0.00 in0.0 mm
10:30 PM 40.1°F4.5°C 36.2°F2.3°C 86% 3.5 mph WSW5.6 kmh WSW 7.6 mph12.2 kmh 29.89 in1012.2 mb 0.00 in0.0 mm 0.00 in0.0 mm 0.00 in0.0 mm
10:35 PM 40.1°F4.5°C 36.2°F2.3°C 86% 3.4 mph WSW5.5 kmh WSW 7.6 mph12.2 kmh 29.89 in1012.2 mb 0.00 in0.0 mm 0.00 in0.0 mm 0.00 in0.0 mm
10:40 PM 40.1°F4.5°C 36.2°F2.3°C 86% 2.9 mph WSW4.7 kmh WSW 6.0 mph9.7 kmh 29.88 in1011.9 mb 0.00 in0.0 mm 0.00 in0.0 mm 0.00 in0.0 mm
10:45 PM 39.9°F4.4°C 36.1°F2.3°C 86% 2.6 mph W4.2 kmh W 6.0 mph9.7 kmh 29.88 in1011.9 mb 0.00 in0.0 mm 0.00 in0.0 mm 0.00 in0.0 mm
10:50 PM 39.7°F4.3°C 35.9°F2.2°C 86% 2.9 mph NW4.7 kmh NW 6.9 mph11.1 kmh 29.87 in1011.5 mb 0.00 in0.0 mm 0.00 in0.0 mm 0.00 in0.0 mm
10:55 PM 39.7°F4.3°C 35.9°F2.2°C 86% 3.2 mph WNW5.1 kmh WNW 6.9 mph11.1 kmh 29.87 in1011.5 mb 0.00 in0.0 mm 0.00 in0.0 mm 0.00 in0.0 mm
11:00 PM 39.6°F4.2°C 35.7°F2.1°C 86% 3.1 mph WSW5.0 kmh WSW 6.0 mph9.7 kmh 29.87 in1011.5 mb 0.00 in0.0 mm 0.00 in0.0 mm 0.00 in0.0 mm
11:05 PM 39.4°F4.1°C 35.5°F1.9°C 86% 3.0 mph WNW4.8 kmh WNW 6.0 mph9.7 kmh 29.86 in1011.2 mb 0.00 in0.0 mm 0.00 in0.0 mm 0.00 in0.0 mm
11:10 PM 39.2°F4.0°C 35.4°F1.9°C 86% 2.8 mph NW4.5 kmh NW 6.0 mph9.7 kmh 29.86 in1011.2 mb 0.00 in0.0 mm 0.00 in0.0 mm 0.00 in0.0 mm
11:15 PM 39.0°F3.9°C 35.5°F1.9°C 87% 2.5 mph WSW4.0 kmh WSW 5.4 mph8.7 kmh 29.86 in1011.2 mb 0.00 in0.0 mm 0.00 in0.0 mm 0.00 in0.0 mm
11:20 PM 38.8°F3.8°C 35.3°F1.8°C 87% 2.6 mph WSW4.2 kmh WSW 5.4 mph8.7 kmh 29.86 in1011.2 mb 0.00 in0.0 mm 0.00 in0.0 mm 0.00 in0.0 mm
11:25 PM 38.7°F3.7°C 35.1°F1.7°C 87% 2.2 mph WSW3.5 kmh WSW 5.4 mph8.7 kmh 29.86 in1011.2 mb 0.00 in0.0 mm 0.00 in0.0 mm 0.00 in0.0 mm
11:30 PM 38.5°F3.6°C 34.9°F1.6°C 87% 2.2 mph WSW3.5 kmh WSW 4.5 mph7.2 kmh 29.85 in1010.8 mb 0.00 in0.0 mm 0.00 in0.0 mm 0.00 in0.0 mm
11:35 PM 38.3°F3.5°C 34.8°F1.6°C 87% 2.3 mph WSW3.7 kmh WSW 4.5 mph7.2 kmh 29.85 in1010.8 mb 0.00 in0.0 mm 0.00 in0.0 mm 0.00 in0.0 mm
11:40 PM 38.1°F3.4°C 34.6°F1.4°C 87% 2.2 mph WSW3.5 kmh WSW 4.5 mph7.2 kmh 29.84 in1010.5 mb 0.00 in0.0 mm 0.00 in0.0 mm 0.00 in0.0 mm
11:45 PM 38.1°F3.4°C 34.6°F1.4°C 87% 2.2 mph WSW3.5 kmh WSW 6.0 mph9.7 kmh 29.84 in1010.5 mb 0.00 in0.0 mm 0.00 in0.0 mm 0.00 in0.0 mm
11:50 PM 38.3°F3.5°C 34.8°F1.6°C 87% 2.0 mph WSW3.2 kmh WSW 6.0 mph9.7 kmh 29.84 in1010.5 mb 0.00 in0.0 mm 0.00 in0.0 mm 0.00 in0.0 mm
11:55 PM 38.1°F3.4°C 34.6°F1.4°C 87% 1.7 mph W2.7 kmh W 4.5 mph7.2 kmh 29.84 in1010.5 mb 0.00 in0.0 mm 0.00 in0.0 mm 0.00 in0.0 mm